sensor_id;sensor_type;location;lat;lon;timestamp;P1;durP1;ratioP1;P2;durP2;ratioP2
9256;SDS011;4665;51.368;6.782;2022-11-14T00:00:27;5.10;;;4.67;;
9256;SDS011;4665;51.368;6.782;2022-11-14T00:02:53;5.70;;;5.13;;
9256;SDS011;4665;51.368;6.782;2022-11-14T00:05:19;6.60;;;5.83;;
9256;SDS011;4665;51.368;6.782;2022-11-14T00:07:45;6.80;;;5.30;;
9256;SDS011;4665;51.368;6.782;2022-11-14T00:10:12;6.57;;;5.53;;
9256;SDS011;4665;51.368;6.782;2022-11-14T00:12:38;7.30;;;5.53;;
9256;SDS011;4665;51.368;6.782;2022-11-14T00:15:04;8.40;;;6.20;;
9256;SDS011;4665;51.368;6.782;2022-11-14T00:17:30;6.30;;;5.53;;
9256;SDS011;4665;51.368;6.782;2022-11-14T00:19:55;8.73;;;5.80;;
9256;SDS011;4665;51.368;6.782;2022-11-14T00:22:21;6.63;;;5.93;;
9256;SDS011;4665;51.368;6.782;2022-11-14T00:24:46;7.50;;;6.30;;
9256;SDS011;4665;51.368;6.782;2022-11-14T00:27:12;7.17;;;6.10;;
9256;SDS011;4665;51.368;6.782;2022-11-14T00:29:38;7.80;;;5.80;;
9256;SDS011;4665;51.368;6.782;2022-11-14T00:32:04;7.73;;;6.30;;
9256;SDS011;4665;51.368;6.782;2022-11-14T00:34:29;7.33;;;6.10;;
9256;SDS011;4665;51.368;6.782;2022-11-14T00:36:55;8.40;;;6.20;;
9256;SDS011;4665;51.368;6.782;2022-11-14T00:39:20;6.90;;;6.20;;
9256;SDS011;4665;51.368;6.782;2022-11-14T00:41:45;6.00;;;5.33;;
9256;SDS011;4665;51.368;6.782;2022-11-14T00:44:11;6.37;;;5.40;;
9256;SDS011;4665;51.368;6.782;2022-11-14T00:46:36;7.50;;;5.70;;
9256;SDS011;4665;51.368;6.782;2022-11-14T00:49:02;6.27;;;5.67;;
9256;SDS011;4665;51.368;6.782;2022-11-14T00:51:28;6.37;;;5.73;;
9256;SDS011;4665;51.368;6.782;2022-11-14T00:53:53;5.80;;;5.23;;
9256;SDS011;4665;51.368;6.782;2022-11-14T00:56:18;7.37;;;5.73;;
9256;SDS011;4665;51.368;6.782;2022-11-14T00:58:44;7.57;;;5.40;;
9256;SDS011;4665;51.368;6.782;2022-11-14T01:01:09;9.40;;;6.20;;
9256;SDS011;4665;51.368;6.782;2022-11-14T01:03:35;6.57;;;5.83;;
9256;SDS011;4665;51.368;6.782;2022-11-14T01:06:04;6.50;;;5.80;;
9256;SDS011;4665;51.368;6.782;2022-11-14T01:08:31;7.83;;;6.30;;
9256;SDS011;4665;51.368;6.782;2022-11-14T01:10:56;7.87;;;6.27;;
9256;SDS011;4665;51.368;6.782;2022-11-14T01:13:23;7.47;;;5.80;;
9256;SDS011;4665;51.368;6.782;2022-11-14T01:15:48;7.13;;;5.60;;
9256;SDS011;4665;51.368;6.782;2022-11-14T01:18:15;6.93;;;5.53;;
9256;SDS011;4665;51.368;6.782;2022-11-14T01:20:44;8.23;;;6.20;;
9256;SDS011;4665;51.368;6.782;2022-11-14T01:23:11;6.77;;;6.03;;
9256;SDS011;4665;51.368;6.782;2022-11-14T01:25:38;6.20;;;5.60;;
9256;SDS011;4665;51.368;6.782;2022-11-14T01:28:06;6.33;;;5.50;;
9256;SDS011;4665;51.368;6.782;2022-11-14T01:30:33;6.17;;;5.47;;
9256;SDS011;4665;51.368;6.782;2022-11-14T01:32:58;6.40;;;5.70;;
9256;SDS011;4665;51.368;6.782;2022-11-14T01:35:24;7.00;;;5.77;;
9256;SDS011;4665;51.368;6.782;2022-11-14T01:37:49;5.57;;;5.07;;
9256;SDS011;4665;51.368;6.782;2022-11-14T01:40:15;6.07;;;5.47;;
9256;SDS011;4665;51.368;6.782;2022-11-14T01:42:41;6.13;;;5.53;;
9256;SDS011;4665;51.368;6.782;2022-11-14T01:48:11;6.10;;;5.50;;
9256;SDS011;4665;51.368;6.782;2022-11-14T01:50:45;6.67;;;4.63;;
9256;SDS011;4665;51.368;6.782;2022-11-14T01:53:14;6.67;;;5.57;;
9256;SDS011;4665;51.368;6.782;2022-11-14T01:55:39;5.63;;;5.03;;
9256;SDS011;4665;51.368;6.782;2022-11-14T01:58:05;6.13;;;5.53;;
9256;SDS011;4665;51.368;6.782;2022-11-14T02:00:31;6.50;;;5.63;;
9256;SDS011;4665;51.368;6.782;2022-11-14T02:02:56;6.00;;;5.40;;
9256;SDS011;4665;51.368;6.782;2022-11-14T02:05:23;5.60;;;4.97;;
9256;SDS011;4665;51.368;6.782;2022-11-14T02:07:49;6.20;;;5.57;;
9256;SDS011;4665;51.368;6.782;2022-11-14T02:10:17;5.80;;;5.27;;
9256;SDS011;4665;51.368;6.782;2022-11-14T02:12:44;5.77;;;5.17;;
9256;SDS011;4665;51.368;6.782;2022-11-14T02:15:10;6.00;;;5.40;;
9256;SDS011;4665;51.368;6.782;2022-11-14T02:17:36;7.23;;;5.27;;
9256;SDS011;4665;51.368;6.782;2022-11-14T02:22:27;6.17;;;5.57;;
9256;SDS011;4665;51.368;6.782;2022-11-14T02:24:53;6.47;;;5.83;;
9256;SDS011;4665;51.368;6.782;2022-11-14T02:27:18;5.40;;;4.90;;
9256;SDS011;4665;51.368;6.782;2022-11-14T02:29:44;5.50;;;4.87;;
9256;SDS011;4665;51.368;6.782;2022-11-14T02:32:09;7.30;;;5.10;;
9256;SDS011;4665;51.368;6.782;2022-11-14T02:34:35;6.13;;;5.60;;
9256;SDS011;4665;51.368;6.782;2022-11-14T02:37:00;6.47;;;5.50;;
9256;SDS011;4665;51.368;6.782;2022-11-14T02:39:25;6.57;;;5.83;;
9256;SDS011;4665;51.368;6.782;2022-11-14T02:41:51;5.53;;;5.03;;
9256;SDS011;4665;51.368;6.782;2022-11-14T02:44:17;5.43;;;4.93;;
9256;SDS011;4665;51.368;6.782;2022-11-14T02:46:43;5.07;;;4.63;;
9256;SDS011;4665;51.368;6.782;2022-11-14T02:49:09;7.47;;;6.67;;
9256;SDS011;4665;51.368;6.782;2022-11-14T02:51:34;5.40;;;4.90;;
9256;SDS011;4665;51.368;6.782;2022-11-14T02:54:00;5.20;;;4.70;;
9256;SDS011;4665;51.368;6.782;2022-11-14T02:56:25;6.27;;;5.10;;
9256;SDS011;4665;51.368;6.782;2022-11-14T02:58:51;6.17;;;5.10;;
9256;SDS011;4665;51.368;6.782;2022-11-14T03:01:16;5.60;;;4.50;;
9256;SDS011;4665;51.368;6.782;2022-11-14T03:03:42;5.33;;;4.83;;
9256;SDS011;4665;51.368;6.782;2022-11-14T03:06:07;5.60;;;5.00;;
9256;SDS011;4665;51.368;6.782;2022-11-14T03:08:33;5.63;;;5.03;;
9256;SDS011;4665;51.368;6.782;2022-11-14T03:11:05;5.27;;;4.80;;
9256;SDS011;4665;51.368;6.782;2022-11-14T03:13:32;5.73;;;5.17;;
9256;SDS011;4665;51.368;6.782;2022-11-14T03:16:03;5.87;;;5.20;;
9256;SDS011;4665;51.368;6.782;2022-11-14T03:18:30;6.40;;;5.17;;
9256;SDS011;4665;51.368;6.782;2022-11-14T03:20:55;5.77;;;4.93;;
9256;SDS011;4665;51.368;6.782;2022-11-14T03:23:21;5.30;;;4.80;;
9256;SDS011;4665;51.368;6.782;2022-11-14T03:25:46;5.73;;;5.03;;
9256;SDS011;4665;51.368;6.782;2022-11-14T03:28:11;4.97;;;4.50;;
9256;SDS011;4665;51.368;6.782;2022-11-14T03:30:37;7.87;;;5.23;;
9256;SDS011;4665;51.368;6.782;2022-11-14T03:33:02;6.00;;;5.40;;
9256;SDS011;4665;51.368;6.782;2022-11-14T03:35:28;6.03;;;5.43;;
9256;SDS011;4665;51.368;6.782;2022-11-14T03:37:53;6.07;;;5.37;;
9256;SDS011;4665;51.368;6.782;2022-11-14T03:40:18;5.10;;;4.47;;
9256;SDS011;4665;51.368;6.782;2022-11-14T03:42:44;5.33;;;4.83;;
9256;SDS011;4665;51.368;6.782;2022-11-14T03:45:09;5.30;;;4.80;;
9256;SDS011;4665;51.368;6.782;2022-11-14T03:47:35;5.30;;;4.80;;
9256;SDS011;4665;51.368;6.782;2022-11-14T03:50:00;5.47;;;4.97;;
9256;SDS011;4665;51.368;6.782;2022-11-14T03:52:25;5.43;;;4.93;;
9256;SDS011;4665;51.368;6.782;2022-11-14T03:54:51;4.87;;;4.47;;
9256;SDS011;4665;51.368;6.782;2022-11-14T03:57:16;6.37;;;5.77;;
9256;SDS011;4665;51.368;6.782;2022-11-14T03:59:42;5.20;;;4.70;;
9256;SDS011;4665;51.368;6.782;2022-11-14T04:02:07;5.97;;;5.00;;
9256;SDS011;4665;51.368;6.782;2022-11-14T04:04:33;5.23;;;4.73;;
9256;SDS011;4665;51.368;6.782;2022-11-14T04:06:58;5.93;;;4.83;;
9256;SDS011;4665;51.368;6.782;2022-11-14T04:09:24;5.17;;;4.50;;
9256;SDS011;4665;51.368;6.782;2022-11-14T04:11:49;5.97;;;4.70;;
9256;SDS011;4665;51.368;6.782;2022-11-14T04:14:15;5.10;;;4.60;;
9256;SDS011;4665;51.368;6.782;2022-11-14T04:16:40;6.23;;;4.90;;
9256;SDS011;4665;51.368;6.782;2022-11-14T04:19:05;5.30;;;4.67;;
9256;SDS011;4665;51.368;6.782;2022-11-14T04:21:31;6.33;;;5.07;;
9256;SDS011;4665;51.368;6.782;2022-11-14T04:23:56;6.87;;;5.20;;
9256;SDS011;4665;51.368;6.782;2022-11-14T04:26:21;5.63;;;4.80;;
9256;SDS011;4665;51.368;6.782;2022-11-14T04:28:47;6.57;;;5.60;;
9256;SDS011;4665;51.368;6.782;2022-11-14T04:31:12;6.07;;;5.40;;
9256;SDS011;4665;51.368;6.782;2022-11-14T04:33:38;5.60;;;5.00;;
9256;SDS011;4665;51.368;6.782;2022-11-14T04:36:03;5.30;;;4.80;;
9256;SDS011;4665;51.368;6.782;2022-11-14T04:38:28;7.57;;;5.93;;
9256;SDS011;4665;51.368;6.782;2022-11-14T04:40:54;6.83;;;5.13;;
9256;SDS011;4665;51.368;6.782;2022-11-14T04:43:19;5.13;;;4.63;;
9256;SDS011;4665;51.368;6.782;2022-11-14T04:45:45;6.00;;;4.93;;
9256;SDS011;4665;51.368;6.782;2022-11-14T04:48:11;5.67;;;5.10;;
9256;SDS011;4665;51.368;6.782;2022-11-14T04:50:37;5.43;;;4.93;;
9256;SDS011;4665;51.368;6.782;2022-11-14T04:53:03;6.40;;;5.13;;
9256;SDS011;4665;51.368;6.782;2022-11-14T04:55:29;5.33;;;4.80;;
9256;SDS011;4665;51.368;6.782;2022-11-14T04:57:55;5.20;;;4.70;;
9256;SDS011;4665;51.368;6.782;2022-11-14T05:00:22;5.43;;;4.80;;
9256;SDS011;4665;51.368;6.782;2022-11-14T05:02:48;5.30;;;4.80;;
9256;SDS011;4665;51.368;6.782;2022-11-14T05:05:14;6.13;;;4.83;;
9256;SDS011;4665;51.368;6.782;2022-11-14T05:07:39;7.83;;;4.57;;
9256;SDS011;4665;51.368;6.782;2022-11-14T05:10:05;4.67;;;4.27;;
9256;SDS011;4665;51.368;6.782;2022-11-14T05:12:32;4.77;;;4.37;;
9256;SDS011;4665;51.368;6.782;2022-11-14T05:14:57;4.67;;;4.27;;
9256;SDS011;4665;51.368;6.782;2022-11-14T05:17:23;7.27;;;4.60;;
9256;SDS011;4665;51.368;6.782;2022-11-14T05:19:48;5.53;;;4.60;;
9256;SDS011;4665;51.368;6.782;2022-11-14T05:22:14;4.90;;;4.00;;
9256;SDS011;4665;51.368;6.782;2022-11-14T05:24:39;5.07;;;4.57;;
9256;SDS011;4665;51.368;6.782;2022-11-14T05:27:05;5.20;;;4.70;;
9256;SDS011;4665;51.368;6.782;2022-11-14T05:29:30;4.77;;;4.37;;
9256;SDS011;4665;51.368;6.782;2022-11-14T05:31:56;6.47;;;4.67;;
9256;SDS011;4665;51.368;6.782;2022-11-14T05:34:22;5.17;;;4.47;;
9256;SDS011;4665;51.368;6.782;2022-11-14T05:36:47;5.17;;;4.57;;
9256;SDS011;4665;51.368;6.782;2022-11-14T05:39:13;4.73;;;4.30;;
9256;SDS011;4665;51.368;6.782;2022-11-14T05:41:39;4.70;;;4.10;;
9256;SDS011;4665;51.368;6.782;2022-11-14T05:44:04;4.67;;;4.03;;
9256;SDS011;4665;51.368;6.782;2022-11-14T05:46:30;4.63;;;4.13;;
9256;SDS011;4665;51.368;6.782;2022-11-14T05:48:55;5.03;;;4.53;;
9256;SDS011;4665;51.368;6.782;2022-11-14T05:51:20;4.97;;;4.50;;
9256;SDS011;4665;51.368;6.782;2022-11-14T05:53:46;5.70;;;4.23;;
9256;SDS011;4665;51.368;6.782;2022-11-14T05:56:11;5.83;;;4.77;;
9256;SDS011;4665;51.368;6.782;2022-11-14T05:58:37;4.43;;;4.03;;
9256;SDS011;4665;51.368;6.782;2022-11-14T06:01:10;5.23;;;4.73;;
9256;SDS011;4665;51.368;6.782;2022-11-14T06:03:38;4.90;;;4.40;;
9256;SDS011;4665;51.368;6.782;2022-11-14T06:06:08;4.87;;;4.17;;
9256;SDS011;4665;51.368;6.782;2022-11-14T06:08:36;5.77;;;4.47;;
9256;SDS011;4665;51.368;6.782;2022-11-14T06:11:05;5.53;;;4.10;;
9256;SDS011;4665;51.368;6.782;2022-11-14T06:13:35;4.60;;;4.20;;
9256;SDS011;4665;51.368;6.782;2022-11-14T06:16:06;5.50;;;4.47;;
9256;SDS011;4665;51.368;6.782;2022-11-14T06:18:33;4.60;;;4.20;;
9256;SDS011;4665;51.368;6.782;2022-11-14T06:21:00;4.90;;;4.40;;
9256;SDS011;4665;51.368;6.782;2022-11-14T06:23:35;5.37;;;4.70;;
9256;SDS011;4665;51.368;6.782;2022-11-14T06:26:01;5.67;;;4.17;;
9256;SDS011;4665;51.368;6.782;2022-11-14T06:28:29;6.30;;;4.67;;
9256;SDS011;4665;51.368;6.782;2022-11-14T06:30:58;7.13;;;4.80;;
9256;SDS011;4665;51.368;6.782;2022-11-14T06:33:28;5.27;;;4.73;;
9256;SDS011;4665;51.368;6.782;2022-11-14T06:35:58;5.30;;;4.80;;
9256;SDS011;4665;51.368;6.782;2022-11-14T06:38:25;5.47;;;4.97;;
9256;SDS011;4665;51.368;6.782;2022-11-14T06:40:50;4.97;;;4.47;;
9256;SDS011;4665;51.368;6.782;2022-11-14T06:43:16;5.77;;;5.17;;
9256;SDS011;4665;51.368;6.782;2022-11-14T06:45:41;5.73;;;5.23;;
9256;SDS011;4665;51.368;6.782;2022-11-14T06:48:07;4.90;;;4.50;;
9256;SDS011;4665;51.368;6.782;2022-11-14T06:50:32;5.27;;;4.77;;
9256;SDS011;4665;51.368;6.782;2022-11-14T06:52:58;5.70;;;5.10;;
9256;SDS011;4665;51.368;6.782;2022-11-14T06:55:23;5.50;;;5.00;;
9256;SDS011;4665;51.368;6.782;2022-11-14T06:57:52;6.17;;;5.57;;
9256;SDS011;4665;51.368;6.782;2022-11-14T07:00:19;6.13;;;5.20;;
9256;SDS011;4665;51.368;6.782;2022-11-14T07:02:45;6.87;;;6.00;;
9256;SDS011;4665;51.368;6.782;2022-11-14T07:05:11;6.53;;;5.70;;
9256;SDS011;4665;51.368;6.782;2022-11-14T07:07:36;5.63;;;5.07;;
9256;SDS011;4665;51.368;6.782;2022-11-14T07:10:02;6.13;;;5.53;;
9256;SDS011;4665;51.368;6.782;2022-11-14T07:12:27;6.10;;;5.50;;
9256;SDS011;4665;51.368;6.782;2022-11-14T07:14:53;8.50;;;5.57;;
9256;SDS011;4665;51.368;6.782;2022-11-14T07:17:19;6.30;;;5.40;;
9256;SDS011;4665;51.368;6.782;2022-11-14T07:19:44;6.20;;;5.60;;
9256;SDS011;4665;51.368;6.782;2022-11-14T07:22:10;6.73;;;5.60;;
9256;SDS011;4665;51.368;6.782;2022-11-14T07:24:35;8.27;;;6.00;;
9256;SDS011;4665;51.368;6.782;2022-11-14T07:27:00;7.83;;;5.77;;
9256;SDS011;4665;51.368;6.782;2022-11-14T07:29:26;7.40;;;5.80;;
9256;SDS011;4665;51.368;6.782;2022-11-14T07:31:52;6.97;;;6.20;;
9256;SDS011;4665;51.368;6.782;2022-11-14T07:34:17;6.93;;;6.23;;
9256;SDS011;4665;51.368;6.782;2022-11-14T07:36:43;7.83;;;6.50;;
9256;SDS011;4665;51.368;6.782;2022-11-14T07:39:09;7.37;;;6.40;;
9256;SDS011;4665;51.368;6.782;2022-11-14T07:41:34;6.87;;;6.17;;
9256;SDS011;4665;51.368;6.782;2022-11-14T07:44:00;10.73;;;6.50;;
9256;SDS011;4665;51.368;6.782;2022-11-14T07:46:25;7.10;;;6.40;;
9256;SDS011;4665;51.368;6.782;2022-11-14T07:48:50;6.70;;;6.00;;
9256;SDS011;4665;51.368;6.782;2022-11-14T07:51:17;7.07;;;6.37;;
9256;SDS011;4665;51.368;6.782;2022-11-14T07:53:43;8.70;;;6.40;;
9256;SDS011;4665;51.368;6.782;2022-11-14T07:56:09;7.77;;;6.77;;
9256;SDS011;4665;51.368;6.782;2022-11-14T07:58:35;8.10;;;6.57;;
9256;SDS011;4665;51.368;6.782;2022-11-14T08:01:02;7.33;;;6.63;;
9256;SDS011;4665;51.368;6.782;2022-11-14T08:03:29;7.73;;;6.93;;
9256;SDS011;4665;51.368;6.782;2022-11-14T08:06:03;8.10;;;6.90;;
9256;SDS011;4665;51.368;6.782;2022-11-14T08:08:30;8.30;;;7.40;;
9256;SDS011;4665;51.368;6.782;2022-11-14T08:10:56;8.27;;;7.43;;
9256;SDS011;4665;51.368;6.782;2022-11-14T08:13:23;8.27;;;7.33;;
9256;SDS011;4665;51.368;6.782;2022-11-14T08:15:49;9.23;;;8.23;;
9256;SDS011;4665;51.368;6.782;2022-11-14T08:18:14;12.30;;;9.07;;
9256;SDS011;4665;51.368;6.782;2022-11-14T08:20:40;11.07;;;8.43;;
9256;SDS011;4665;51.368;6.782;2022-11-14T08:23:05;10.40;;;9.27;;
9256;SDS011;4665;51.368;6.782;2022-11-14T08:25:31;12.87;;;9.70;;
9256;SDS011;4665;51.368;6.782;2022-11-14T08:27:57;14.33;;;10.50;;
9256;SDS011;4665;51.368;6.782;2022-11-14T08:30:22;12.97;;;10.37;;
9256;SDS011;4665;51.368;6.782;2022-11-14T08:32:48;13.03;;;10.07;;
9256;SDS011;4665;51.368;6.782;2022-11-14T08:35:14;14.97;;;10.87;;
9256;SDS011;4665;51.368;6.782;2022-11-14T08:37:39;13.33;;;10.80;;
9256;SDS011;4665;51.368;6.782;2022-11-14T08:40:04;13.07;;;10.77;;
9256;SDS011;4665;51.368;6.782;2022-11-14T08:42:30;13.10;;;10.77;;
9256;SDS011;4665;51.368;6.782;2022-11-14T08:44:56;14.07;;;10.67;;
9256;SDS011;4665;51.368;6.782;2022-11-14T08:47:21;14.10;;;10.63;;
9256;SDS011;4665;51.368;6.782;2022-11-14T08:49:47;12.67;;;10.47;;
9256;SDS011;4665;51.368;6.782;2022-11-14T08:52:12;16.97;;;11.20;;
9256;SDS011;4665;51.368;6.782;2022-11-14T08:54:37;15.33;;;12.17;;
9256;SDS011;4665;51.368;6.782;2022-11-14T08:57:03;15.47;;;11.97;;
9256;SDS011;4665;51.368;6.782;2022-11-14T08:59:31;13.80;;;10.87;;
9256;SDS011;4665;51.368;6.782;2022-11-14T09:01:57;14.30;;;11.40;;
9256;SDS011;4665;51.368;6.782;2022-11-14T09:04:22;12.17;;;10.33;;
9256;SDS011;4665;51.368;6.782;2022-11-14T09:06:48;15.90;;;11.50;;
9256;SDS011;4665;51.368;6.782;2022-11-14T09:09:13;14.93;;;11.57;;
9256;SDS011;4665;51.368;6.782;2022-11-14T09:11:39;14.60;;;11.13;;
9256;SDS011;4665;51.368;6.782;2022-11-14T09:14:04;15.07;;;12.10;;
9256;SDS011;4665;51.368;6.782;2022-11-14T09:16:30;15.77;;;12.20;;
9256;SDS011;4665;51.368;6.782;2022-11-14T09:18:55;16.57;;;11.67;;
9256;SDS011;4665;51.368;6.782;2022-11-14T09:21:21;15.50;;;11.97;;
9256;SDS011;4665;51.368;6.782;2022-11-14T09:23:47;15.30;;;11.93;;
9256;SDS011;4665;51.368;6.782;2022-11-14T09:26:12;15.43;;;11.60;;
9256;SDS011;4665;51.368;6.782;2022-11-14T09:28:38;16.60;;;11.43;;
9256;SDS011;4665;51.368;6.782;2022-11-14T09:31:04;15.83;;;11.40;;
9256;SDS011;4665;51.368;6.782;2022-11-14T09:33:32;14.57;;;11.37;;
9256;SDS011;4665;51.368;6.782;2022-11-14T09:35:58;15.40;;;11.87;;
9256;SDS011;4665;51.368;6.782;2022-11-14T09:38:25;21.30;;;12.10;;
9256;SDS011;4665;51.368;6.782;2022-11-14T09:40:56;15.87;;;12.00;;
9256;SDS011;4665;51.368;6.782;2022-11-14T09:48:46;15.37;;;12.17;;
9256;SDS011;4665;51.368;6.782;2022-11-14T09:51:16;15.00;;;11.70;;
9256;SDS011;4665;51.368;6.782;2022-11-14T09:53:46;16.50;;;12.43;;
9256;SDS011;4665;51.368;6.782;2022-11-14T09:56:19;15.67;;;12.33;;
9256;SDS011;4665;51.368;6.782;2022-11-14T09:58:48;17.47;;;11.70;;
9256;SDS011;4665;51.368;6.782;2022-11-14T10:07:01;14.60;;;11.53;;
9256;SDS011;4665;51.368;6.782;2022-11-14T10:12:21;15.37;;;11.57;;
9256;SDS011;4665;51.368;6.782;2022-11-14T10:18:01;15.80;;;11.47;;
9256;SDS011;4665;51.368;6.782;2022-11-14T10:20:56;14.53;;;11.33;;
9256;SDS011;4665;51.368;6.782;2022-11-14T10:26:28;16.10;;;10.67;;
9256;SDS011;4665;51.368;6.782;2022-11-14T10:37:08;8.90;;;7.60;;
9256;SDS011;4665;51.368;6.782;2022-11-14T10:42:30;9.97;;;7.37;;
9256;SDS011;4665;51.368;6.782;2022-11-14T10:45:02;10.37;;;7.77;;
9256;SDS011;4665;51.368;6.782;2022-11-14T10:47:38;9.07;;;6.90;;
9256;SDS011;4665;51.368;6.782;2022-11-14T10:51:11;7.10;;;6.40;;
9256;SDS011;4665;51.368;6.782;2022-11-14T10:55:55;8.57;;;6.73;;
9256;SDS011;4665;51.368;6.782;2022-11-14T10:58:22;7.90;;;6.10;;
9256;SDS011;4665;51.368;6.782;2022-11-14T11:00:48;7.30;;;6.13;;
9256;SDS011;4665;51.368;6.782;2022-11-14T11:03:13;6.60;;;5.90;;
9256;SDS011;4665;51.368;6.782;2022-11-14T11:05:50;8.37;;;6.10;;
9256;SDS011;4665;51.368;6.782;2022-11-14T11:08:20;6.87;;;5.50;;
9256;SDS011;4665;51.368;6.782;2022-11-14T11:11:15;7.10;;;6.03;;
9256;SDS011;4665;51.368;6.782;2022-11-14T11:13:56;7.67;;;5.80;;
9256;SDS011;4665;51.368;6.782;2022-11-14T11:16:25;7.33;;;5.70;;
9256;SDS011;4665;51.368;6.782;2022-11-14T11:18:51;6.20;;;5.60;;
9256;SDS011;4665;51.368;6.782;2022-11-14T11:21:18;6.57;;;5.87;;
9256;SDS011;4665;51.368;6.782;2022-11-14T11:26:18;6.43;;;5.83;;
9256;SDS011;4665;51.368;6.782;2022-11-14T11:28:43;8.30;;;6.60;;
9256;SDS011;4665;51.368;6.782;2022-11-14T11:31:47;8.37;;;6.90;;
9256;SDS011;4665;51.368;6.782;2022-11-14T11:34:23;8.10;;;6.93;;
9256;SDS011;4665;51.368;6.782;2022-11-14T11:36:58;8.47;;;7.33;;
9256;SDS011;4665;51.368;6.782;2022-11-14T11:39:26;9.07;;;7.43;;
9256;SDS011;4665;51.368;6.782;2022-11-14T11:41:56;10.33;;;7.30;;
9256;SDS011;4665;51.368;6.782;2022-11-14T11:44:34;10.77;;;8.13;;
9256;SDS011;4665;51.368;6.782;2022-11-14T11:47:03;8.00;;;7.03;;
9256;SDS011;4665;51.368;6.782;2022-11-14T11:55:00;10.00;;;8.47;;
9256;SDS011;4665;51.368;6.782;2022-11-14T11:57:44;10.47;;;8.63;;
9256;SDS011;4665;51.368;6.782;2022-11-14T12:00:16;11.07;;;8.80;;
9256;SDS011;4665;51.368;6.782;2022-11-14T12:02:45;10.33;;;8.63;;
9256;SDS011;4665;51.368;6.782;2022-11-14T12:05:15;10.87;;;8.33;;
9256;SDS011;4665;51.368;6.782;2022-11-14T12:07:54;10.23;;;8.43;;
9256;SDS011;4665;51.368;6.782;2022-11-14T12:10:26;9.53;;;8.20;;
9256;SDS011;4665;51.368;6.782;2022-11-14T12:18:48;11.77;;;8.43;;
9256;SDS011;4665;51.368;6.782;2022-11-14T12:31:11;10.70;;;9.03;;
9256;SDS011;4665;51.368;6.782;2022-11-14T12:33:49;9.77;;;8.77;;
9256;SDS011;4665;51.368;6.782;2022-11-14T12:36:25;9.97;;;8.50;;
9256;SDS011;4665;51.368;6.782;2022-11-14T12:38:54;9.93;;;8.93;;
9256;SDS011;4665;51.368;6.782;2022-11-14T12:41:22;10.13;;;8.50;;
9256;SDS011;4665;51.368;6.782;2022-11-14T12:43:50;11.53;;;8.13;;
9256;SDS011;4665;51.368;6.782;2022-11-14T12:46:15;9.63;;;8.00;;
9256;SDS011;4665;51.368;6.782;2022-11-14T12:48:43;10.40;;;8.70;;
9256;SDS011;4665;51.368;6.782;2022-11-14T12:57:18;8.70;;;7.77;;
9256;SDS011;4665;51.368;6.782;2022-11-14T13:00:10;9.57;;;8.30;;
9256;SDS011;4665;51.368;6.782;2022-11-14T13:02:43;9.63;;;8.37;;
9256;SDS011;4665;51.368;6.782;2022-11-14T13:10:52;9.00;;;7.83;;
9256;SDS011;4665;51.368;6.782;2022-11-14T13:13:17;9.93;;;8.20;;
9256;SDS011;4665;51.368;6.782;2022-11-14T13:16:21;8.97;;;7.90;;
9256;SDS011;4665;51.368;6.782;2022-11-14T13:27:23;10.80;;;7.97;;
9256;SDS011;4665;51.368;6.782;2022-11-14T13:29:50;9.90;;;7.63;;
9256;SDS011;4665;51.368;6.782;2022-11-14T13:38:35;8.27;;;7.37;;
9256;SDS011;4665;51.368;6.782;2022-11-14T13:49:58;9.43;;;7.83;;
9256;SDS011;4665;51.368;6.782;2022-11-14T13:52:25;9.87;;;7.73;;
9256;SDS011;4665;51.368;6.782;2022-11-14T13:54:55;10.33;;;8.37;;
9256;SDS011;4665;51.368;6.782;2022-11-14T13:57:25;10.63;;;8.57;;
9256;SDS011;4665;51.368;6.782;2022-11-14T14:00:17;10.83;;;8.43;;
9256;SDS011;4665;51.368;6.782;2022-11-14T14:03:05;11.47;;;9.00;;
9256;SDS011;4665;51.368;6.782;2022-11-14T14:08:41;11.10;;;9.50;;
9256;SDS011;4665;51.368;6.782;2022-11-14T14:11:38;10.20;;;8.27;;
9256;SDS011;4665;51.368;6.782;2022-11-14T14:14:19;11.17;;;9.10;;
9256;SDS011;4665;51.368;6.782;2022-11-14T14:17:06;11.30;;;9.23;;
9256;SDS011;4665;51.368;6.782;2022-11-14T14:19:41;11.23;;;8.87;;
9256;SDS011;4665;51.368;6.782;2022-11-14T14:22:27;10.83;;;8.70;;
9256;SDS011;4665;51.368;6.782;2022-11-14T14:31:08;10.03;;;8.87;;
9256;SDS011;4665;51.368;6.782;2022-11-14T14:33:40;9.90;;;8.77;;
9256;SDS011;4665;51.368;6.782;2022-11-14T14:38:49;9.63;;;8.63;;
9256;SDS011;4665;51.368;6.782;2022-11-14T14:41:17;10.13;;;8.87;;
9256;SDS011;4665;51.368;6.782;2022-11-14T14:43:53;9.37;;;8.37;;
9256;SDS011;4665;51.368;6.782;2022-11-14T14:46:27;13.80;;;9.43;;
9256;SDS011;4665;51.368;6.782;2022-11-14T14:48:54;13.33;;;8.70;;
9256;SDS011;4665;51.368;6.782;2022-11-14T14:51:32;11.40;;;8.90;;
9256;SDS011;4665;51.368;6.782;2022-11-14T14:53:58;10.73;;;8.43;;
9256;SDS011;4665;51.368;6.782;2022-11-14T14:56:24;11.90;;;8.90;;
9256;SDS011;4665;51.368;6.782;2022-11-14T14:58:50;11.40;;;9.00;;
9256;SDS011;4665;51.368;6.782;2022-11-14T15:01:17;10.97;;;8.83;;
9256;SDS011;4665;51.368;6.782;2022-11-14T15:03:49;11.93;;;8.97;;
9256;SDS011;4665;51.368;6.782;2022-11-14T15:06:20;10.10;;;8.77;;
9256;SDS011;4665;51.368;6.782;2022-11-14T15:08:56;11.20;;;8.53;;
9256;SDS011;4665;51.368;6.782;2022-11-14T15:11:24;10.87;;;9.40;;
9256;SDS011;4665;51.368;6.782;2022-11-14T15:13:52;10.50;;;8.83;;
9256;SDS011;4665;51.368;6.782;2022-11-14T15:16:20;10.23;;;9.20;;
9256;SDS011;4665;51.368;6.782;2022-11-14T15:18:47;11.33;;;9.73;;
9256;SDS011;4665;51.368;6.782;2022-11-14T15:23:59;13.33;;;9.70;;
9256;SDS011;4665;51.368;6.782;2022-11-14T15:26:37;13.50;;;9.73;;
9256;SDS011;4665;51.368;6.782;2022-11-14T15:29:06;12.93;;;9.33;;
9256;SDS011;4665;51.368;6.782;2022-11-14T15:31:42;10.93;;;9.83;;
9256;SDS011;4665;51.368;6.782;2022-11-14T15:34:32;12.43;;;9.57;;
9256;SDS011;4665;51.368;6.782;2022-11-14T15:37:16;11.90;;;9.60;;
9256;SDS011;4665;51.368;6.782;2022-11-14T15:39:45;11.30;;;9.07;;
9256;SDS011;4665;51.368;6.782;2022-11-14T15:44:50;10.57;;;8.87;;
9256;SDS011;4665;51.368;6.782;2022-11-14T15:52:47;9.97;;;8.97;;
9256;SDS011;4665;51.368;6.782;2022-11-14T15:55:16;12.63;;;8.87;;
9256;SDS011;4665;51.368;6.782;2022-11-14T15:57:44;12.20;;;9.40;;
9256;SDS011;4665;51.368;6.782;2022-11-14T16:00:10;10.73;;;9.63;;
9256;SDS011;4665;51.368;6.782;2022-11-14T16:02:40;13.67;;;9.63;;
9256;SDS011;4665;51.368;6.782;2022-11-14T16:05:12;10.77;;;9.40;;
9256;SDS011;4665;51.368;6.782;2022-11-14T16:07:39;11.63;;;9.67;;
9256;SDS011;4665;51.368;6.782;2022-11-14T16:10:14;10.53;;;9.07;;
9256;SDS011;4665;51.368;6.782;2022-11-14T16:12:42;10.70;;;9.60;;
9256;SDS011;4665;51.368;6.782;2022-11-14T16:15:08;11.70;;;9.83;;
9256;SDS011;4665;51.368;6.782;2022-11-14T16:17:38;11.20;;;9.13;;
9256;SDS011;4665;51.368;6.782;2022-11-14T16:20:06;13.03;;;10.53;;
9256;SDS011;4665;51.368;6.782;2022-11-14T16:22:39;12.27;;;9.93;;
9256;SDS011;4665;51.368;6.782;2022-11-14T16:25:05;11.03;;;9.60;;
9256;SDS011;4665;51.368;6.782;2022-11-14T16:27:36;13.43;;;9.67;;
9256;SDS011;4665;51.368;6.782;2022-11-14T16:30:01;12.00;;;9.57;;
9256;SDS011;4665;51.368;6.782;2022-11-14T16:32:27;11.40;;;9.53;;
9256;SDS011;4665;51.368;6.782;2022-11-14T16:34:52;14.60;;;10.50;;
9256;SDS011;4665;51.368;6.782;2022-11-14T16:37:18;10.87;;;9.60;;
9256;SDS011;4665;51.368;6.782;2022-11-14T16:39:43;13.87;;;10.10;;
9256;SDS011;4665;51.368;6.782;2022-11-14T16:42:09;11.77;;;9.50;;
9256;SDS011;4665;51.368;6.782;2022-11-14T16:44:36;17.70;;;10.13;;
9256;SDS011;4665;51.368;6.782;2022-11-14T16:47:01;13.43;;;10.90;;
9256;SDS011;4665;51.368;6.782;2022-11-14T16:49:27;12.97;;;10.30;;
9256;SDS011;4665;51.368;6.782;2022-11-14T16:51:52;12.03;;;9.93;;
9256;SDS011;4665;51.368;6.782;2022-11-14T16:54:20;11.33;;;9.20;;
9256;SDS011;4665;51.368;6.782;2022-11-14T16:56:46;10.50;;;9.07;;
9256;SDS011;4665;51.368;6.782;2022-11-14T16:59:12;10.43;;;9.33;;
9256;SDS011;4665;51.368;6.782;2022-11-14T17:01:38;11.23;;;9.80;;
9256;SDS011;4665;51.368;6.782;2022-11-14T17:04:03;11.10;;;9.83;;
9256;SDS011;4665;51.368;6.782;2022-11-14T17:06:29;10.60;;;9.53;;
9256;SDS011;4665;51.368;6.782;2022-11-14T17:08:55;11.43;;;9.40;;
9256;SDS011;4665;51.368;6.782;2022-11-14T17:11:22;13.63;;;9.83;;
9256;SDS011;4665;51.368;6.782;2022-11-14T17:13:48;10.87;;;9.77;;